sensor_id;sensor_type;location;lat;lon;timestamp;pressure;altitude;pressure_sealevel;temperature;humidity
31096;BME280;17749;51.962;8.560;2023-06-10T05:03:03;100088.25;;;17.22;100.00
31096;BME280;17749;51.962;8.560;2023-06-10T05:05:30;100090.72;;;17.25;100.00
31096;BME280;17749;51.962;8.560;2023-06-10T05:07:58;100088.81;;;17.27;100.00
31096;BME280;17749;51.962;8.560;2023-06-10T05:10:25;100083.00;;;17.33;100.00
31096;BME280;17749;51.962;8.560;2023-06-10T05:12:53;100084.91;;;17.31;100.00
31096;BME280;17749;51.962;8.560;2023-06-10T05:15:20;100100.13;;;17.32;100.00
31096;BME280;17749;51.962;8.560;2023-06-10T05:17:47;100111.63;;;17.34;100.00
31096;BME280;17749;51.962;8.560;2023-06-10T05:20:15;100109.28;;;17.42;100.00
31096;BME280;17749;51.962;8.560;2023-06-10T05:22:42;100108.88;;;17.48;100.00
31096;BME280;17749;51.962;8.560;2023-06-10T05:25:10;100097.56;;;17.56;100.00
31096;BME280;17749;51.962;8.560;2023-06-10T05:27:37;100105.66;;;17.69;100.00
31096;BME280;17749;51.962;8.560;2023-06-10T05:30:05;100105.97;;;17.77;100.00
31096;BME280;17749;51.962;8.560;2023-06-10T05:32:34;100098.25;;;17.85;100.00
31096;BME280;17749;51.962;8.560;2023-06-10T05:35:01;100101.56;;;18.02;100.00
31096;BME280;17749;51.962;8.560;2023-06-10T05:37:30;100095.41;;;18.12;100.00
31096;BME280;17749;51.962;8.560;2023-06-10T05:39:57;100088.94;;;18.28;100.00
31096;BME280;17749;51.962;8.560;2023-06-10T05:42:24;100099.47;;;18.44;100.00
31096;BME280;17749;51.962;8.560;2023-06-10T05:44:51;100096.84;;;18.55;100.00
31096;BME280;17749;51.962;8.560;2023-06-10T05:47:19;100095.84;;;18.69;100.00
31096;BME280;17749;51.962;8.560;2023-06-10T05:49:46;100094.81;;;18.82;100.00
31096;BME280;17749;51.962;8.560;2023-06-10T05:52:15;100094.19;;;19.03;100.00
31096;BME280;17749;51.962;8.560;2023-06-10T05:54:43;100090.63;;;19.26;100.00
31096;BME280;17749;51.962;8.560;2023-06-10T05:57:10;100089.81;;;19.48;100.00
31096;BME280;17749;51.962;8.560;2023-06-10T05:59:37;100083.16;;;19.77;100.00
31096;BME280;17749;51.962;8.560;2023-06-10T06:02:05;100087.34;;;19.92;98.78
31096;BME280;17749;51.962;8.560;2023-06-10T06:04:33;100090.28;;;20.11;98.98
31096;BME280;17749;51.962;8.560;2023-06-10T06:07:01;100092.75;;;20.37;100.00
31096;BME280;17749;51.962;8.560;2023-06-10T06:09:29;100088.78;;;20.64;95.68
31096;BME280;17749;51.962;8.560;2023-06-10T06:11:56;100082.47;;;20.86;95.39
31096;BME280;17749;51.962;8.560;2023-06-10T06:14:23;100091.81;;;21.14;97.28
31096;BME280;17749;51.962;8.560;2023-06-10T06:16:50;100082.13;;;21.32;96.68
31096;BME280;17749;51.962;8.560;2023-06-10T06:19:17;100097.84;;;21.50;96.76
31096;BME280;17749;51.962;8.560;2023-06-10T06:21:44;100082.50;;;21.60;95.23
31096;BME280;17749;51.962;8.560;2023-06-10T06:24:11;100075.50;;;21.78;94.88
31096;BME280;17749;51.962;8.560;2023-06-10T06:26:39;100083.63;;;22.09;94.56
31096;BME280;17749;51.962;8.560;2023-06-10T06:29:06;100081.59;;;22.32;87.94
31096;BME280;17749;51.962;8.560;2023-06-10T06:31:33;100082.66;;;22.50;89.71
31096;BME280;17749;51.962;8.560;2023-06-10T06:34:01;100074.69;;;22.68;87.84
31096;BME280;17749;51.962;8.560;2023-06-10T06:36:29;100082.16;;;22.86;84.62
31096;BME280;17749;51.962;8.560;2023-06-10T06:38:57;100076.94;;;23.13;87.71
31096;BME280;17749;51.962;8.560;2023-06-10T06:41:27;100077.47;;;23.36;84.40
31096;BME280;17749;51.962;8.560;2023-06-10T06:43:55;100090.75;;;23.49;82.78
31096;BME280;17749;51.962;8.560;2023-06-10T06:46:23;100082.31;;;23.52;81.29
31096;BME280;17749;51.962;8.560;2023-06-10T06:48:50;100083.88;;;23.65;83.81
31096;BME280;17749;51.962;8.560;2023-06-10T06:51:18;100082.56;;;23.88;82.17
31096;BME280;17749;51.962;8.560;2023-06-10T06:53:44;100089.22;;;24.13;80.26
31096;BME280;17749;51.962;8.560;2023-06-10T06:56:12;100089.13;;;24.33;81.24
31096;BME280;17749;51.962;8.560;2023-06-10T06:58:39;100090.06;;;24.41;83.66
31096;BME280;17749;51.962;8.560;2023-06-10T07:01:06;100086.66;;;24.67;82.63
31096;BME280;17749;51.962;8.560;2023-06-10T07:03:33;100093.31;;;25.00;80.39
31096;BME280;17749;51.962;8.560;2023-06-10T07:06:03;100095.16;;;25.27;80.81
31096;BME280;17749;51.962;8.560;2023-06-10T07:08:30;100092.69;;;25.60;78.71
31096;BME280;17749;51.962;8.560;2023-06-10T07:10:58;100092.47;;;25.53;78.02
31096;BME280;17749;51.962;8.560;2023-06-10T07:13:24;100082.47;;;25.62;79.54
31096;BME280;17749;51.962;8.560;2023-06-10T07:15:51;100097.63;;;25.83;77.89
31096;BME280;17749;51.962;8.560;2023-06-10T07:18:18;100092.63;;;25.96;77.88
31096;BME280;17749;51.962;8.560;2023-06-10T07:20:45;100087.94;;;26.14;76.38
31096;BME280;17749;51.962;8.560;2023-06-10T07:23:12;100098.34;;;26.11;75.27
31096;BME280;17749;51.962;8.560;2023-06-10T07:25:41;100094.91;;;26.09;75.82
31096;BME280;17749;51.962;8.560;2023-06-10T07:28:08;100101.31;;;26.26;73.29
31096;BME280;17749;51.962;8.560;2023-06-10T07:30:35;100108.22;;;26.46;73.95
31096;BME280;17749;51.962;8.560;2023-06-10T07:33:02;100112.53;;;26.91;74.03
31096;BME280;17749;51.962;8.560;2023-06-10T07:35:29;100117.72;;;27.19;69.67
31096;BME280;17749;51.962;8.560;2023-06-10T07:37:56;100115.91;;;26.93;70.80
31096;BME280;17749;51.962;8.560;2023-06-10T07:40:23;100109.47;;;27.10;70.71
31096;BME280;17749;51.962;8.560;2023-06-10T07:42:51;100122.53;;;27.49;70.85
31096;BME280;17749;51.962;8.560;2023-06-10T07:45:19;100114.00;;;27.85;71.06
31096;BME280;17749;51.962;8.560;2023-06-10T07:47:46;100119.09;;;28.05;70.42
31096;BME280;17749;51.962;8.560;2023-06-10T07:50:13;100115.31;;;28.14;70.92
31096;BME280;17749;51.962;8.560;2023-06-10T07:52:40;100119.91;;;28.13;70.22
31096;BME280;17749;51.962;8.560;2023-06-10T07:55:07;100117.06;;;27.90;71.00
31096;BME280;17749;51.962;8.560;2023-06-10T07:57:34;100128.00;;;27.99;71.25
31096;BME280;17749;51.962;8.560;2023-06-10T08:00:03;100124.03;;;28.09;69.64
31096;BME280;17749;51.962;8.560;2023-06-10T08:02:38;100130.19;;;28.19;69.91
31096;BME280;17749;51.962;8.560;2023-06-10T08:05:05;100128.19;;;28.53;70.53
31096;BME280;17749;51.962;8.560;2023-06-10T08:07:32;100132.09;;;28.67;70.01
31096;BME280;17749;51.962;8.560;2023-06-10T08:09:59;100133.53;;;28.86;70.60
31096;BME280;17749;51.962;8.560;2023-06-10T08:12:26;100135.97;;;29.12;70.27
31096;BME280;17749;51.962;8.560;2023-06-10T08:14:53;100141.53;;;29.26;70.96
31096;BME280;17749;51.962;8.560;2023-06-10T08:17:22;100136.41;;;29.23;68.56
31096;BME280;17749;51.962;8.560;2023-06-10T08:19:52;100141.72;;;29.25;69.14
31096;BME280;17749;51.962;8.560;2023-06-10T08:22:19;100141.78;;;29.17;68.67
31096;BME280;17749;51.962;8.560;2023-06-10T08:24:46;100137.44;;;29.22;68.65
31096;BME280;17749;51.962;8.560;2023-06-10T08:27:15;100144.41;;;29.56;69.13
31096;BME280;17749;51.962;8.560;2023-06-10T08:29:42;100139.66;;;29.73;68.44
31096;BME280;17749;51.962;8.560;2023-06-10T08:32:09;100142.97;;;29.68;68.24
31096;BME280;17749;51.962;8.560;2023-06-10T08:34:36;100146.22;;;29.18;68.51
31096;BME280;17749;51.962;8.560;2023-06-10T08:37:03;100137.97;;;28.87;69.19
31096;BME280;17749;51.962;8.560;2023-06-10T08:39:30;100133.13;;;28.97;69.71
31096;BME280;17749;51.962;8.560;2023-06-10T08:44:28;100138.78;;;29.73;68.88
31096;BME280;17749;51.962;8.560;2023-06-10T08:46:56;100136.56;;;29.91;66.61
31096;BME280;17749;51.962;8.560;2023-06-10T08:49:26;100134.38;;;29.86;66.28
31096;BME280;17749;51.962;8.560;2023-06-10T08:51:58;100138.69;;;29.66;67.79
31096;BME280;17749;51.962;8.560;2023-06-10T08:54:28;100134.13;;;29.50;67.70
31096;BME280;17749;51.962;8.560;2023-06-10T08:56:57;100138.50;;;29.67;67.58
31096;BME280;17749;51.962;8.560;2023-06-10T08:59:25;100133.31;;;29.73;67.20
31096;BME280;17749;51.962;8.560;2023-06-10T09:01:53;100138.16;;;29.62;68.24
31096;BME280;17749;51.962;8.560;2023-06-10T09:04:21;100130.97;;;29.61;68.47
31096;BME280;17749;51.962;8.560;2023-06-10T09:06:51;100131.00;;;29.38;68.23
31096;BME280;17749;51.962;8.560;2023-06-10T09:09:19;100139.53;;;29.66;68.27
31096;BME280;17749;51.962;8.560;2023-06-10T09:11:47;100140.88;;;29.70;68.21
31096;BME280;17749;51.962;8.560;2023-06-10T09:14:14;100137.47;;;29.68;69.88
31096;BME280;17749;51.962;8.560;2023-06-10T09:16:43;100134.28;;;29.80;67.58
31096;BME280;17749;51.962;8.560;2023-06-10T09:19:11;100133.91;;;29.83;66.10
31096;BME280;17749;51.962;8.560;2023-06-10T09:21:39;100139.50;;;29.89;67.31
31096;BME280;17749;51.962;8.560;2023-06-10T09:24:06;100139.88;;;29.63;67.31
31096;BME280;17749;51.962;8.560;2023-06-10T09:26:34;100132.81;;;29.46;69.10
31096;BME280;17749;51.962;8.560;2023-06-10T09:29:05;100140.56;;;29.65;69.23
31096;BME280;17749;51.962;8.560;2023-06-10T09:31:35;100129.38;;;29.90;69.62
31096;BME280;17749;51.962;8.560;2023-06-10T09:34:11;100128.34;;;29.91;68.85
31096;BME280;17749;51.962;8.560;2023-06-10T09:36:39;100135.91;;;29.89;70.26
31096;BME280;17749;51.962;8.560;2023-06-10T09:39:17;100132.91;;;30.13;70.47
31096;BME280;17749;51.962;8.560;2023-06-10T09:41:45;100125.94;;;30.55;69.94
31096;BME280;17749;51.962;8.560;2023-06-10T09:44:17;100132.00;;;30.51;69.50
31096;BME280;17749;51.962;8.560;2023-06-10T09:46:46;100122.06;;;30.35;70.26
31096;BME280;17749;51.962;8.560;2023-06-10T09:49:14;100124.53;;;30.30;69.99
31096;BME280;17749;51.962;8.560;2023-06-10T09:51:54;100121.47;;;30.25;69.10
31096;BME280;17749;51.962;8.560;2023-06-10T09:54:22;100120.50;;;30.18;69.59
31096;BME280;17749;51.962;8.560;2023-06-10T09:56:51;100122.25;;;30.48;69.83
31096;BME280;17749;51.962;8.560;2023-06-10T09:59:30;100122.81;;;30.58;69.24
31096;BME280;17749;51.962;8.560;2023-06-10T10:02:01;100112.09;;;30.49;69.30
31096;BME280;17749;51.962;8.560;2023-06-10T10:04:29;100120.63;;;30.54;68.76
31096;BME280;17749;51.962;8.560;2023-06-10T10:06:56;100113.22;;;30.54;68.49
31096;BME280;17749;51.962;8.560;2023-06-10T10:09:23;100115.31;;;30.52;69.15
31096;BME280;17749;51.962;8.560;2023-06-10T10:11:51;100121.34;;;30.77;68.34
31096;BME280;17749;51.962;8.560;2023-06-10T10:14:20;100123.56;;;30.82;66.71
31096;BME280;17749;51.962;8.560;2023-06-10T10:16:49;100114.28;;;30.53;66.24
31096;BME280;17749;51.962;8.560;2023-06-10T10:19:21;100117.69;;;30.55;67.52
31096;BME280;17749;51.962;8.560;2023-06-10T10:21:54;100118.34;;;30.43;67.31
31096;BME280;17749;51.962;8.560;2023-06-10T10:24:24;100112.94;;;30.20;68.31
31096;BME280;17749;51.962;8.560;2023-06-10T10:27:11;100112.88;;;30.43;67.90
31096;BME280;17749;51.962;8.560;2023-06-10T10:29:52;100110.97;;;30.58;67.86
31096;BME280;17749;51.962;8.560;2023-06-10T10:32:52;100104.59;;;30.57;66.75
31096;BME280;17749;51.962;8.560;2023-06-10T10:35:23;100111.25;;;30.48;67.59
31096;BME280;17749;51.962;8.560;2023-06-10T10:37:54;100121.72;;;30.15;66.97
31096;BME280;17749;51.962;8.560;2023-06-10T10:40:22;100117.69;;;30.26;68.52
31096;BME280;17749;51.962;8.560;2023-06-10T10:42:50;100115.78;;;30.71;70.13
31096;BME280;17749;51.962;8.560;2023-06-10T10:45:18;100112.06;;;30.78;65.27
31096;BME280;17749;51.962;8.560;2023-06-10T10:47:52;100111.59;;;30.75;66.73
31096;BME280;17749;51.962;8.560;2023-06-10T10:50:20;100107.59;;;30.92;67.25
31096;BME280;17749;51.962;8.560;2023-06-10T10:55:20;100118.88;;;31.19;65.42
31096;BME280;17749;51.962;8.560;2023-06-10T10:58:06;100104.34;;;31.04;64.51
31096;BME280;17749;51.962;8.560;2023-06-10T11:00:37;100105.66;;;31.08;65.11
31096;BME280;17749;51.962;8.560;2023-06-10T11:03:14;100114.03;;;30.99;64.11
31096;BME280;17749;51.962;8.560;2023-06-10T11:05:43;100106.03;;;30.68;64.83
31096;BME280;17749;51.962;8.560;2023-06-10T11:08:16;100111.97;;;30.72;64.31
31096;BME280;17749;51.962;8.560;2023-06-10T11:11:21;100105.63;;;30.71;65.09
31096;BME280;17749;51.962;8.560;2023-06-10T11:16:29;100104.34;;;31.04;62.69
31096;BME280;17749;51.962;8.560;2023-06-10T11:18:56;100104.97;;;30.84;64.47
31096;BME280;17749;51.962;8.560;2023-06-10T11:21:23;100100.44;;;30.62;64.75
31096;BME280;17749;51.962;8.560;2023-06-10T11:23:57;100103.84;;;30.64;64.22
31096;BME280;17749;51.962;8.560;2023-06-10T11:33:58;100094.88;;;30.55;63.06
31096;BME280;17749;51.962;8.560;2023-06-10T11:36:27;100086.13;;;30.66;65.27
31096;BME280;17749;51.962;8.560;2023-06-10T11:38:59;100091.06;;;30.56;64.68
31096;BME280;17749;51.962;8.560;2023-06-10T11:41:28;100092.97;;;30.55;64.42
31096;BME280;17749;51.962;8.560;2023-06-10T11:43:57;100085.63;;;30.63;65.15
31096;BME280;17749;51.962;8.560;2023-06-10T11:46:27;100094.53;;;30.65;65.06
31096;BME280;17749;51.962;8.560;2023-06-10T11:48:56;100087.34;;;30.64;65.75
31096;BME280;17749;51.962;8.560;2023-06-10T11:51:29;100089.59;;;30.75;66.93
31096;BME280;17749;51.962;8.560;2023-06-10T11:53:56;100077.66;;;30.83;65.71
31096;BME280;17749;51.962;8.560;2023-06-10T11:56:27;100079.84;;;31.09;64.52
31096;BME280;17749;51.962;8.560;2023-06-10T11:59:00;100086.41;;;31.51;65.29
31096;BME280;17749;51.962;8.560;2023-06-10T12:01:42;100080.78;;;31.37;64.73
31096;BME280;17749;51.962;8.560;2023-06-10T12:04:12;100086.44;;;30.93;64.76
31096;BME280;17749;51.962;8.560;2023-06-10T12:09:13;100072.53;;;30.94;65.58
31096;BME280;17749;51.962;8.560;2023-06-10T12:12:01;100076.03;;;31.10;64.08
31096;BME280;17749;51.962;8.560;2023-06-10T12:14:57;100077.75;;;31.11;63.87
31096;BME280;17749;51.962;8.560;2023-06-10T12:20:03;100077.66;;;30.68;64.87
31096;BME280;17749;51.962;8.560;2023-06-10T12:22:43;100078.38;;;30.55;64.79
31096;BME280;17749;51.962;8.560;2023-06-10T12:25:11;100078.44;;;30.62;64.46
31096;BME280;17749;51.962;8.560;2023-06-10T12:27:40;100066.66;;;30.68;65.38
31096;BME280;17749;51.962;8.560;2023-06-10T12:30:07;100080.41;;;30.83;66.08
31096;BME280;17749;51.962;8.560;2023-06-10T12:32:42;100068.31;;;30.98;65.71
31096;BME280;17749;51.962;8.560;2023-06-10T12:35:12;100066.34;;;30.92;65.32
31096;BME280;17749;51.962;8.560;2023-06-10T12:37:41;100060.03;;;30.77;66.66
31096;BME280;17749;51.962;8.560;2023-06-10T12:40:10;100061.34;;;30.81;64.31
31096;BME280;17749;51.962;8.560;2023-06-10T12:42:38;100059.09;;;30.85;64.48
31096;BME280;17749;51.962;8.560;2023-06-10T12:45:05;100065.97;;;30.80;65.03
31096;BME280;17749;51.962;8.560;2023-06-10T12:47:37;100068.19;;;30.85;65.08
31096;BME280;17749;51.962;8.560;2023-06-10T12:50:08;100079.78;;;30.66;65.16
31096;BME280;17749;51.962;8.560;2023-06-10T12:52:36;100067.28;;;30.48;65.78
31096;BME280;17749;51.962;8.560;2023-06-10T12:55:03;100065.00;;;30.52;64.38
31096;BME280;17749;51.962;8.560;2023-06-10T12:57:31;100064.69;;;30.62;66.45
31096;BME280;17749;51.962;8.560;2023-06-10T12:59:58;100069.50;;;30.89;67.01
31096;BME280;17749;51.962;8.560;2023-06-10T13:02:30;100071.47;;;30.95;64.48
31096;BME280;17749;51.962;8.560;2023-06-10T13:04:58;100060.06;;;30.98;64.26
31096;BME280;17749;51.962;8.560;2023-06-10T13:07:25;100060.81;;;30.71;63.87
31096;BME280;17749;51.962;8.560;2023-06-10T13:09:53;100065.13;;;30.80;64.29
31096;BME280;17749;51.962;8.560;2023-06-10T13:12:20;100063.91;;;30.68;62.66
31096;BME280;17749;51.962;8.560;2023-06-10T13:15:04;100053.59;;;30.70;64.01
31096;BME280;17749;51.962;8.560;2023-06-10T13:17:31;100059.50;;;30.52;64.13
31096;BME280;17749;51.962;8.560;2023-06-10T13:20:00;100052.03;;;30.61;62.78
31096;BME280;17749;51.962;8.560;2023-06-10T13:22:27;100050.72;;;30.78;62.15
31096;BME280;17749;51.962;8.560;2023-06-10T13:24:55;100046.59;;;30.67;60.34
31096;BME280;17749;51.962;8.560;2023-06-10T13:27:22;100042.91;;;30.60;61.65
31096;BME280;17749;51.962;8.560;2023-06-10T13:29:49;100041.47;;;30.64;62.59
31096;BME280;17749;51.962;8.560;2023-06-10T13:32:16;100040.69;;;30.70;62.54
31096;BME280;17749;51.962;8.560;2023-06-10T13:34:43;100037.28;;;30.83;62.59
31096;BME280;17749;51.962;8.560;2023-06-10T13:37:10;100033.94;;;30.51;62.60
31096;BME280;17749;51.962;8.560;2023-06-10T13:39:39;100033.69;;;30.68;63.35
31096;BME280;17749;51.962;8.560;2023-06-10T13:42:06;100031.59;;;30.70;62.35
31096;BME280;17749;51.962;8.560;2023-06-10T13:44:34;100024.88;;;30.72;62.14
31096;BME280;17749;51.962;8.560;2023-06-10T13:47:03;100023.22;;;30.78;63.22
31096;BME280;17749;51.962;8.560;2023-06-10T13:49:30;100029.13;;;30.75;63.33
31096;BME280;17749;51.962;8.560;2023-06-10T13:51:57;100017.59;;;30.65;63.25
31096;BME280;17749;51.962;8.560;2023-06-10T13:54:24;100013.03;;;30.72;63.22
31096;BME280;17749;51.962;8.560;2023-06-10T13:56:51;100014.63;;;30.81;63.54
31096;BME280;17749;51.962;8.560;2023-06-10T13:59:19;100019.88;;;30.97;63.19
31096;BME280;17749;51.962;8.560;2023-06-10T14:01:47;100013.91;;;30.94;62.17
31096;BME280;17749;51.962;8.560;2023-06-10T14:04:14;100007.53;;;30.72;62.43
31096;BME280;17749;51.962;8.560;2023-06-10T14:06:41;100015.59;;;30.73;63.08
31096;BME280;17749;51.962;8.560;2023-06-10T14:09:08;100013.91;;;30.57;63.44
31096;BME280;17749;51.962;8.560;2023-06-10T14:11:36;100012.63;;;30.39;64.20
31096;BME280;17749;51.962;8.560;2023-06-10T14:14:03;100016.34;;;30.31;63.01
31096;BME280;17749;51.962;8.560;2023-06-10T14:16:30;100014.66;;;30.30;63.47
31096;BME280;17749;51.962;8.560;2023-06-10T14:18:57;100011.78;;;30.38;63.73
31096;BME280;17749;51.962;8.560;2023-06-10T14:21:23;100016.91;;;30.41;64.41
31096;BME280;17749;51.962;8.560;2023-06-10T14:23:50;100006.28;;;30.38;64.74
31096;BME280;17749;51.962;8.560;2023-06-10T14:26:19;100012.47;;;30.25;65.90
31096;BME280;17749;51.962;8.560;2023-06-10T14:28:49;100007.25;;;30.30;65.96
31096;BME280;17749;51.962;8.560;2023-06-10T14:31:16;100005.34;;;30.31;65.01
31096;BME280;17749;51.962;8.560;2023-06-10T14:33:43;99999.66;;;30.18;66.78
31096;BME280;17749;51.962;8.560;2023-06-10T14:36:10;100002.59;;;30.31;65.90
31096;BME280;17749;51.962;8.560;2023-06-10T14:38:37;99997.50;;;30.28;66.17
31096;BME280;17749;51.962;8.560;2023-06-10T14:41:04;99998.31;;;30.43;66.02
31096;BME280;17749;51.962;8.560;2023-06-10T14:43:31;99995.19;;;30.46;66.17
31096;BME280;17749;51.962;8.560;2023-06-10T14:45:58;100002.75;;;30.44;65.86
31096;BME280;17749;51.962;8.560;2023-06-10T14:48:25;100003.38;;;30.40;66.52
31096;BME280;17749;51.962;8.560;2023-06-10T14:50:52;100000.03;;;30.44;66.50
31096;BME280;17749;51.962;8.560;2023-06-10T14:53:22;99999.66;;;30.47;66.58
31096;BME280;17749;51.962;8.560;2023-06-10T14:55:48;100000.16;;;30.57;67.87
31096;BME280;17749;51.962;8.560;2023-06-10T14:58:15;99996.53;;;30.72;67.28
31096;BME280;17749;51.962;8.560;2023-06-10T15:00:42;99998.41;;;30.86;67.40
31096;BME280;17749;51.962;8.560;2023-06-10T15:03:09;99995.75;;;30.78;65.97
31096;BME280;17749;51.962;8.560;2023-06-10T15:05:36;99996.53;;;30.72;66.21
31096;BME280;17749;51.962;8.560;2023-06-10T15:08:04;99987.22;;;30.51;66.71
31096;BME280;17749;51.962;8.560;2023-06-10T15:10:31;99987.97;;;30.24;66.91
31096;BME280;17749;51.962;8.560;2023-06-10T15:12:58;99989.34;;;30.05;66.98
31096;BME280;17749;51.962;8.560;2023-06-10T15:15:25;99984.91;;;30.19;68.29
31096;BME280;17749;51.962;8.560;2023-06-10T15:17:53;99977.44;;;30.27;67.74
31096;BME280;17749;51.962;8.560;2023-06-10T15:20:21;99978.28;;;30.28;67.54
31096;BME280;17749;51.962;8.560;2023-06-10T15:22:48;99977.88;;;30.31;67.99
31096;BME280;17749;51.962;8.560;2023-06-10T15:25:16;99970.31;;;30.33;67.39
31096;BME280;17749;51.962;8.560;2023-06-10T15:27:56;99968.88;;;30.22;68.19
31096;BME280;17749;51.962;8.560;2023-06-10T15:30:23;99969.13;;;30.06;67.54
31096;BME280;17749;51.962;8.560;2023-06-10T15:32:50;99973.38;;;29.79;68.13
31096;BME280;17749;51.962;8.560;2023-06-10T15:35:17;99968.19;;;29.69;68.98
31096;BME280;17749;51.962;8.560;2023-06-10T15:37:44;99972.06;;;29.75;69.29
31096;BME280;17749;51.962;8.560;2023-06-10T15:40:11;99971.47;;;29.94;69.82
31096;BME280;17749;51.962;8.560;2023-06-10T15:42:39;99968.63;;;30.02;69.24
31096;BME280;17749;51.962;8.560;2023-06-10T15:45:06;99971.09;;;29.97;69.69
31096;BME280;17749;51.962;8.560;2023-06-10T15:47:33;99972.31;;;29.95;69.12
31096;BME280;17749;51.962;8.560;2023-06-10T15:50:00;99970.06;;;29.83;68.59
31096;BME280;17749;51.962;8.560;2023-06-10T15:52:27;99971.41;;;29.87;69.52
31096;BME280;17749;51.962;8.560;2023-06-10T15:54:54;99975.66;;;29.90;69.25
31096;BME280;17749;51.962;8.560;2023-06-10T15:57:21;99978.41;;;29.90;69.70
31096;BME280;17749;51.962;8.560;2023-06-10T15:59:52;99968.75;;;29.79;69.39
31096;BME280;17749;51.962;8.560;2023-06-10T16:02:20;99976.59;;;29.82;69.59
31096;BME280;17749;51.962;8.560;2023-06-10T16:04:47;99964.28;;;29.63;68.89
31096;BME280;17749;51.962;8.560;2023-06-10T16:07:14;99977.50;;;29.45;69.52
31096;BME280;17749;51.962;8.560;2023-06-10T16:09:41;99970.31;;;29.44;70.21
31096;BME280;17749;51.962;8.560;2023-06-10T16:12:08;99964.72;;;29.37;69.93
31096;BME280;17749;51.962;8.560;2023-06-10T16:14:35;99958.28;;;29.30;70.98
31096;BME280;17749;51.962;8.560;2023-06-10T16:17:02;99962.34;;;29.34;70.88
31096;BME280;17749;51.962;8.560;2023-06-10T16:19:29;99965.28;;;29.33;70.50
31096;BME280;17749;51.962;8.560;2023-06-10T16:21:57;99964.22;;;29.34;71.15
31096;BME280;17749;51.962;8.560;2023-06-10T16:24:23;99967.53;;;29.29;70.06
31096;BME280;17749;51.962;8.560;2023-06-10T16:26:50;99969.44;;;29.28;69.86
31096;BME280;17749;51.962;8.560;2023-06-10T16:29:17;99957.16;;;29.24;70.39
31096;BME280;17749;51.962;8.560;2023-06-10T16:31:44;99960.53;;;29.12;70.00
31096;BME280;17749;51.962;8.560;2023-06-10T16:34:11;99962.81;;;29.00;69.55
31096;BME280;17749;51.962;8.560;2023-06-10T16:36:40;99970.25;;;28.91;70.65
31096;BME280;17749;51.962;8.560;2023-06-10T16:39:07;99959.28;;;28.91;70.54
31096;BME280;17749;51.962;8.560;2023-06-10T16:41:34;99963.78;;;28.84;70.14
31096;BME280;17749;51.962;8.560;2023-06-10T16:44:01;99961.97;;;28.76;69.78
31096;BME280;17749;51.962;8.560;2023-06-10T16:46:30;99967.19;;;28.63;69.57
31096;BME280;17749;51.962;8.560;2023-06-10T16:48:56;99964.72;;;28.53;69.77
31096;BME280;17749;51.962;8.560;2023-06-10T16:51:23;99961.16;;;28.45;70.44
31096;BME280;17749;51.962;8.560;2023-06-10T16:53:50;99963.50;;;28.25;70.63
31096;BME280;17749;51.962;8.560;2023-06-10T16:56:17;99958.22;;;28.15;71.49
31096;BME280;17749;51.962;8.560;2023-06-10T16:58:44;99960.28;;;28.13;72.05
31096;BME280;17749;51.962;8.560;2023-06-10T17:01:11;99962.34;;;28.11;71.91
31096;BME280;17749;51.962;8.560;2023-06-10T17:03:38;99965.63;;;28.06;71.67
31096;BME280;17749;51.962;8.560;2023-06-10T17:06:06;99963.97;;;27.97;71.26
31096;BME280;17749;51.962;8.560;2023-06-10T17:08:33;99962.78;;;27.91;72.41
31096;BME280;17749;51.962;8.560;2023-06-10T17:11:00;99965.88;;;27.80;72.03
31096;BME280;17749;51.962;8.560;2023-06-10T17:13:27;99974.13;;;27.72;72.51
31096;BME280;17749;51.962;8.560;2023-06-10T17:15:54;99971.75;;;27.61;74.56
31096;BME280;17749;51.962;8.560;2023-06-10T17:18:22;99971.41;;;27.56;73.53
31096;BME280;17749;51.962;8.560;2023-06-10T17:20:50;99975.91;;;27.48;73.66
31096;BME280;17749;51.962;8.560;2023-06-10T17:23:17;99970.41;;;27.40;74.85
31096;BME280;17749;51.962;8.560;2023-06-10T17:25:44;99974.91;;;27.33;74.52
31096;BME280;17749;51.962;8.560;2023-06-10T17:28:11;99975.22;;;27.30;74.66
31096;BME280;17749;51.962;8.560;2023-06-10T17:30:38;99978.63;;;27.32;74.76
31096;BME280;17749;51.962;8.560;2023-06-10T17:33:05;99981.38;;;27.24;74.92
31096;BME280;17749;51.962;8.560;2023-06-10T17:35:32;99984.78;;;27.09;75.79
31096;BME280;17749;51.962;8.560;2023-06-10T17:37:59;99974.22;;;27.06;76.12
31096;BME280;17749;51.962;8.560;2023-06-10T17:40:26;99978.97;;;27.04;76.17
31096;BME280;17749;51.962;8.560;2023-06-10T17:42:53;99983.06;;;27.00;76.26
31096;BME280;17749;51.962;8.560;2023-06-10T17:45:20;99980.34;;;27.00;76.80
31096;BME280;17749;51.962;8.560;2023-06-10T17:47:47;99986.16;;;26.97;76.49
31096;BME280;17749;51.962;8.560;2023-06-10T17:50:15;99988.19;;;26.95;76.86
31096;BME280;17749;51.962;8.560;2023-06-10T17:52:45;99992.97;;;26.93;78.02
31096;BME280;17749;51.962;8.560;2023-06-10T17:55:12;99989.72;;;26.89;79.17
31096;BME280;17749;51.962;8.560;2023-06-10T17:57:39;99982.38;;;26.82;79.26
31096;BME280;17749;51.962;8.560;2023-06-10T18:00:07;99989.38;;;26.76;79.58
31096;BME280;17749;51.962;8.560;2023-06-10T18:02:34;99990.06;;;26.70;80.05
31096;BME280;17749;51.962;8.560;2023-06-10T18:05:01;99993.81;;;26.69;81.42
31096;BME280;17749;51.962;8.560;2023-06-10T18:07:29;99997.72;;;26.66;80.27
31096;BME280;17749;51.962;8.560;2023-06-10T18:09:56;99996.72;;;26.59;80.88
31096;BME280;17749;51.962;8.560;2023-06-10T18:12:23;99995.31;;;26.55;80.86
31096;BME280;17749;51.962;8.560;2023-06-10T18:14:53;99991.34;;;26.50;81.37
31096;BME280;17749;51.962;8.560;2023-06-10T18:17:20;99988.41;;;26.43;81.49
31096;BME280;17749;51.962;8.560;2023-06-10T18:19:47;99996.59;;;26.35;81.81
31096;BME280;17749;51.962;8.560;2023-06-10T18:22:35;99995.25;;;26.31;82.66